VEAT/IXA METAR and TAF weather

Enter ICAO airport designator
Station Type Date Time Source
VEAT METAR 2019/08/24 15:00 UTC NOAA

VEAT 241500Z 00000KT 5000 BR FEW020 BKN100 26/25 Q1005 NOSIG


Station Type Date Time Source
VEAT Decoded METAR 2019/08/24 15:00 UTC NOAA

Station name not available
Aug 24, 2019 - 11:00 AM EDT / 2019.08.24 1500 UTC
Wind: Calm:0
Visibility: 3 mile(s):0
Sky conditions: mostly cloudy
Weather: mist
Temperature: 78 F (26 C)
Dew Point: 77 F (25 C)
Relative Humidity: 94%
Pressure (altimeter): 29.68 in. Hg (1005 hPa)
ob: VEAT 241500Z 00000KT 5000 BR FEW020 BKN100 26/25 Q1005 NOSIG
cycle: 15

Station Type Date Time Source
VEAT TAF 2013/07/19 12:00 UTC NOAA

TAF VEAT 190900Z 1912/1921 16008KT 5000 HZ SCT018 FEW030CB BKN100
TEMPO 1912/1921 3000 -TSRA SCT015 FEW025CB OVC090

Example: see airport list